sensor_id;sensor_type;location;lat;lon;timestamp;pressure;altitude;pressure_sealevel;temperature;humidity
26376;BME280;30544;42.196;24.336;2022-08-21T00:02:18;98457.06;;;20.96;100.00
26376;BME280;30544;42.196;24.336;2022-08-21T00:04:47;98477.28;;;21.07;100.00
26376;BME280;30544;42.196;24.336;2022-08-21T00:07:14;98469.88;;;20.85;100.00
26376;BME280;30544;42.196;24.336;2022-08-21T00:09:41;98458.78;;;20.54;100.00
26376;BME280;30544;42.196;24.336;2022-08-21T00:12:08;98446.34;;;20.55;100.00
26376;BME280;30544;42.196;24.336;2022-08-21T00:14:35;98447.84;;;20.53;100.00
26376;BME280;30544;42.196;24.336;2022-08-21T00:17:03;98451.31;;;20.58;100.00
26376;BME280;30544;42.196;24.336;2022-08-21T00:19:31;98449.66;;;20.57;100.00
26376;BME280;30544;42.196;24.336;2022-08-21T00:21:59;98432.78;;;20.66;100.00
26376;BME280;30544;42.196;24.336;2022-08-21T00:24:26;98443.53;;;20.72;100.00
26376;BME280;30544;42.196;24.336;2022-08-21T00:26:53;98441.00;;;20.97;100.00
26376;BME280;30544;42.196;24.336;2022-08-21T00:29:20;98433.06;;;20.90;100.00
26376;BME280;30544;42.196;24.336;2022-08-21T00:31:47;98433.72;;;20.87;100.00
26376;BME280;30544;42.196;24.336;2022-08-21T00:34:14;98439.28;;;21.13;100.00
26376;BME280;30544;42.196;24.336;2022-08-21T00:36:41;98427.66;;;21.32;99.58
26376;BME280;30544;42.196;24.336;2022-08-21T00:39:09;98421.41;;;21.18;100.00
26376;BME280;30544;42.196;24.336;2022-08-21T00:41:38;98431.50;;;21.10;100.00
26376;BME280;30544;42.196;24.336;2022-08-21T00:44:06;98438.34;;;20.92;100.00
26376;BME280;30544;42.196;24.336;2022-08-21T00:46:34;98449.44;;;21.06;100.00
26376;BME280;30544;42.196;24.336;2022-08-21T00:49:00;98453.72;;;21.12;100.00
26376;BME280;30544;42.196;24.336;2022-08-21T00:51:32;98453.53;;;21.34;100.00
26376;BME280;30544;42.196;24.336;2022-08-21T00:54:01;98451.22;;;21.27;100.00
26376;BME280;30544;42.196;24.336;2022-08-21T00:56:29;98450.22;;;21.15;100.00
26376;BME280;30544;42.196;24.336;2022-08-21T00:58:57;98456.38;;;21.08;100.00
26376;BME280;30544;42.196;24.336;2022-08-21T01:01:25;98450.22;;;21.23;100.00
26376;BME280;30544;42.196;24.336;2022-08-21T01:03:53;98447.44;;;21.06;100.00
26376;BME280;30544;42.196;24.336;2022-08-21T01:06:20;98438.50;;;21.04;100.00
26376;BME280;30544;42.196;24.336;2022-08-21T01:08:47;98447.06;;;21.16;100.00
26376;BME280;30544;42.196;24.336;2022-08-21T01:11:15;98439.47;;;21.17;100.00
26376;BME280;30544;42.196;24.336;2022-08-21T01:13:43;98448.22;;;21.24;100.00
26376;BME280;30544;42.196;24.336;2022-08-21T01:16:13;98452.22;;;21.23;100.00
26376;BME280;30544;42.196;24.336;2022-08-21T01:18:42;98453.72;;;21.20;100.00
26376;BME280;30544;42.196;24.336;2022-08-21T01:21:14;98443.44;;;21.24;100.00
26376;BME280;30544;42.196;24.336;2022-08-21T01:23:44;98439.94;;;21.36;100.00
26376;BME280;30544;42.196;24.336;2022-08-21T01:26:12;98438.72;;;21.46;100.00
26376;BME280;30544;42.196;24.336;2022-08-21T01:28:44;98443.88;;;21.44;100.00
26376;BME280;30544;42.196;24.336;2022-08-21T01:31:13;98448.88;;;21.38;100.00
26376;BME280;30544;42.196;24.336;2022-08-21T01:33:41;98455.84;;;21.32;100.00
26376;BME280;30544;42.196;24.336;2022-08-21T01:36:09;98455.34;;;21.39;100.00
26376;BME280;30544;42.196;24.336;2022-08-21T01:38:36;98478.09;;;21.25;100.00
26376;BME280;30544;42.196;24.336;2022-08-21T01:41:03;98483.75;;;20.99;100.00
26376;BME280;30544;42.196;24.336;2022-08-21T01:43:30;98490.38;;;21.20;100.00
26376;BME280;30544;42.196;24.336;2022-08-21T01:45:57;98491.53;;;21.19;100.00
26376;BME280;30544;42.196;24.336;2022-08-21T01:48:23;98492.88;;;20.96;100.00
26376;BME280;30544;42.196;24.336;2022-08-21T01:50:50;98500.50;;;20.95;100.00
26376;BME280;30544;42.196;24.336;2022-08-21T01:53:19;98484.88;;;21.15;100.00
26376;BME280;30544;42.196;24.336;2022-08-21T01:55:45;98477.44;;;21.19;100.00
26376;BME280;30544;42.196;24.336;2022-08-21T01:58:12;98482.75;;;21.12;100.00
26376;BME280;30544;42.196;24.336;2022-08-21T02:00:39;98475.13;;;21.04;100.00
26376;BME280;30544;42.196;24.336;2022-08-21T02:03:07;98449.16;;;20.72;100.00
26376;BME280;30544;42.196;24.336;2022-08-21T02:05:34;98464.38;;;20.89;100.00
26376;BME280;30544;42.196;24.336;2022-08-21T02:08:01;98461.06;;;20.78;100.00
26376;BME280;30544;42.196;24.336;2022-08-21T02:10:31;98453.28;;;20.92;100.00
26376;BME280;30544;42.196;24.336;2022-08-21T02:12:58;98467.00;;;21.11;100.00
26376;BME280;30544;42.196;24.336;2022-08-21T02:15:27;98482.13;;;20.81;100.00
26376;BME280;30544;42.196;24.336;2022-08-21T02:17:58;98475.50;;;20.59;100.00
26376;BME280;30544;42.196;24.336;2022-08-21T02:20:27;98467.69;;;20.48;100.00
26376;BME280;30544;42.196;24.336;2022-08-21T02:22:55;98464.22;;;20.33;100.00
26376;BME280;30544;42.196;24.336;2022-08-21T02:25:23;98454.97;;;20.50;100.00
26376;BME280;30544;42.196;24.336;2022-08-21T02:27:52;98463.56;;;20.45;100.00
26376;BME280;30544;42.196;24.336;2022-08-21T02:30:23;98461.44;;;20.51;100.00
26376;BME280;30544;42.196;24.336;2022-08-21T02:32:50;98477.84;;;20.66;100.00
26376;BME280;30544;42.196;24.336;2022-08-21T02:35:17;98476.66;;;20.58;100.00
26376;BME280;30544;42.196;24.336;2022-08-21T02:37:48;98468.72;;;20.52;100.00
26376;BME280;30544;42.196;24.336;2022-08-21T02:40:16;98484.31;;;20.66;100.00
26376;BME280;30544;42.196;24.336;2022-08-21T02:42:43;98478.47;;;20.89;100.00
26376;BME280;30544;42.196;24.336;2022-08-21T02:45:13;98480.97;;;20.73;100.00
26376;BME280;30544;42.196;24.336;2022-08-21T02:47:47;98476.50;;;20.72;100.00
26376;BME280;30544;42.196;24.336;2022-08-21T02:50:18;98461.22;;;20.21;100.00
26376;BME280;30544;42.196;24.336;2022-08-21T02:52:45;98460.03;;;20.31;100.00
26376;BME280;30544;42.196;24.336;2022-08-21T02:55:11;98464.69;;;20.27;100.00
26376;BME280;30544;42.196;24.336;2022-08-21T02:57:38;98469.03;;;20.41;100.00
26376;BME280;30544;42.196;24.336;2022-08-21T03:00:06;98476.00;;;20.61;100.00
26376;BME280;30544;42.196;24.336;2022-08-21T03:02:35;98477.34;;;20.72;100.00
26376;BME280;30544;42.196;24.336;2022-08-21T03:05:02;98489.75;;;20.80;100.00
26376;BME280;30544;42.196;24.336;2022-08-21T03:07:29;98490.91;;;20.79;100.00
26376;BME280;30544;42.196;24.336;2022-08-21T03:09:56;98494.38;;;20.76;100.00
26376;BME280;30544;42.196;24.336;2022-08-21T03:12:23;98493.91;;;20.83;100.00
26376;BME280;30544;42.196;24.336;2022-08-21T03:14:50;98503.34;;;20.87;100.00
26376;BME280;30544;42.196;24.336;2022-08-21T03:17:17;98497.22;;;20.85;100.00
26376;BME280;30544;42.196;24.336;2022-08-21T03:19:45;98486.25;;;20.92;100.00
26376;BME280;30544;42.196;24.336;2022-08-21T03:22:12;98492.22;;;20.82;100.00
26376;BME280;30544;42.196;24.336;2022-08-21T03:24:39;98492.56;;;20.71;100.00
26376;BME280;30544;42.196;24.336;2022-08-21T03:27:05;98480.81;;;20.87;100.00
26376;BME280;30544;42.196;24.336;2022-08-21T03:29:32;98481.47;;;20.75;100.00
26376;BME280;30544;42.196;24.336;2022-08-21T03:31:59;98472.47;;;20.99;100.00
26376;BME280;30544;42.196;24.336;2022-08-21T03:34:26;98478.78;;;20.96;100.00
26376;BME280;30544;42.196;24.336;2022-08-21T03:36:54;98481.75;;;20.99;100.00
26376;BME280;30544;42.196;24.336;2022-08-21T03:39:21;98490.22;;;21.08;100.00
26376;BME280;30544;42.196;24.336;2022-08-21T03:41:48;98487.09;;;21.01;100.00
26376;BME280;30544;42.196;24.336;2022-08-21T03:44:15;98487.91;;;21.01;100.00
26376;BME280;30544;42.196;24.336;2022-08-21T03:46:42;98490.56;;;20.98;100.00
26376;BME280;30544;42.196;24.336;2022-08-21T03:49:09;98485.09;;;20.93;100.00
26376;BME280;30544;42.196;24.336;2022-08-21T03:51:35;98490.72;;;20.93;100.00
26376;BME280;30544;42.196;24.336;2022-08-21T03:54:04;98494.38;;;21.02;100.00
26376;BME280;30544;42.196;24.336;2022-08-21T03:56:30;98505.97;;;21.09;100.00
26376;BME280;30544;42.196;24.336;2022-08-21T03:58:57;98515.41;;;21.13;100.00
26376;BME280;30544;42.196;24.336;2022-08-21T04:01:24;98521.03;;;21.13;100.00
26376;BME280;30544;42.196;24.336;2022-08-21T04:03:51;98513.94;;;20.98;100.00
26376;BME280;30544;42.196;24.336;2022-08-21T04:06:18;98508.16;;;20.69;100.00
26376;BME280;30544;42.196;24.336;2022-08-21T04:08:45;98512.13;;;20.77;100.00
26376;BME280;30544;42.196;24.336;2022-08-21T04:11:13;98504.97;;;20.96;100.00
26376;BME280;30544;42.196;24.336;2022-08-21T04:13:40;98506.16;;;20.69;100.00
26376;BME280;30544;42.196;24.336;2022-08-21T04:16:07;98503.81;;;20.80;100.00
26376;BME280;30544;42.196;24.336;2022-08-21T04:18:34;98508.00;;;20.83;100.00
26376;BME280;30544;42.196;24.336;2022-08-21T04:21:01;98500.69;;;20.90;100.00
26376;BME280;30544;42.196;24.336;2022-08-21T04:23:29;98504.84;;;20.76;100.00
26376;BME280;30544;42.196;24.336;2022-08-21T04:25:56;98511.44;;;20.80;100.00
26376;BME280;30544;42.196;24.336;2022-08-21T04:28:26;98510.78;;;20.91;100.00
26376;BME280;30544;42.196;24.336;2022-08-21T04:30:54;98513.28;;;20.93;100.00
26376;BME280;30544;42.196;24.336;2022-08-21T04:33:22;98507.94;;;21.09;100.00
26376;BME280;30544;42.196;24.336;2022-08-21T04:35:49;98501.50;;;20.99;100.00
26376;BME280;30544;42.196;24.336;2022-08-21T04:38:17;98499.69;;;20.86;100.00
26376;BME280;30544;42.196;24.336;2022-08-21T04:40:44;98493.53;;;21.10;100.00
26376;BME280;30544;42.196;24.336;2022-08-21T04:43:11;98486.44;;;20.87;100.00
26376;BME280;30544;42.196;24.336;2022-08-21T04:45:41;98494.19;;;21.07;100.00
26376;BME280;30544;42.196;24.336;2022-08-21T04:48:10;98486.91;;;21.06;100.00
26376;BME280;30544;42.196;24.336;2022-08-21T04:50:40;98487.22;;;21.13;100.00
26376;BME280;30544;42.196;24.336;2022-08-21T04:53:13;98482.63;;;21.00;100.00
26376;BME280;30544;42.196;24.336;2022-08-21T04:55:41;98472.66;;;20.94;100.00
26376;BME280;30544;42.196;24.336;2022-08-21T04:58:09;98485.59;;;20.95;100.00
26376;BME280;30544;42.196;24.336;2022-08-21T05:00:38;98489.53;;;21.11;100.00
26376;BME280;30544;42.196;24.336;2022-08-21T05:03:06;98492.00;;;21.30;100.00
26376;BME280;30544;42.196;24.336;2022-08-21T05:05:34;98494.88;;;21.04;100.00
26376;BME280;30544;42.196;24.336;2022-08-21T05:08:03;98488.22;;;21.17;100.00
26376;BME280;30544;42.196;24.336;2022-08-21T05:10:30;98492.50;;;21.23;100.00
26376;BME280;30544;42.196;24.336;2022-08-21T05:12:58;98488.22;;;21.17;100.00
26376;BME280;30544;42.196;24.336;2022-08-21T05:15:25;98497.97;;;21.37;100.00
26376;BME280;30544;42.196;24.336;2022-08-21T05:17:54;98499.50;;;21.09;100.00
26376;BME280;30544;42.196;24.336;2022-08-21T05:20:21;98507.63;;;21.19;100.00
26376;BME280;30544;42.196;24.336;2022-08-21T05:22:48;98499.16;;;21.10;100.00
26376;BME280;30544;42.196;24.336;2022-08-21T05:25:16;98502.47;;;21.21;100.00
26376;BME280;30544;42.196;24.336;2022-08-21T05:27:42;98508.44;;;21.28;100.00
26376;BME280;30544;42.196;24.336;2022-08-21T05:30:10;98500.66;;;21.34;100.00
26376;BME280;30544;42.196;24.336;2022-08-21T05:32:37;98497.84;;;21.34;100.00
26376;BME280;30544;42.196;24.336;2022-08-21T05:35:07;98497.31;;;21.40;100.00
26376;BME280;30544;42.196;24.336;2022-08-21T05:37:34;98496.00;;;21.38;100.00
26376;BME280;30544;42.196;24.336;2022-08-21T05:40:02;98493.66;;;21.31;100.00
26376;BME280;30544;42.196;24.336;2022-08-21T05:42:29;98498.59;;;21.51;100.00
26376;BME280;30544;42.196;24.336;2022-08-21T05:44:56;98497.44;;;21.52;100.00
26376;BME280;30544;42.196;24.336;2022-08-21T05:47:23;98501.94;;;21.45;100.00
26376;BME280;30544;42.196;24.336;2022-08-21T05:49:50;98495.81;;;21.43;100.00
26376;BME280;30544;42.196;24.336;2022-08-21T05:52:20;98505.72;;;21.57;100.00
26376;BME280;30544;42.196;24.336;2022-08-21T05:54:47;98485.53;;;21.38;100.00
26376;BME280;30544;42.196;24.336;2022-08-21T05:57:15;98493.47;;;21.45;100.00
26376;BME280;30544;42.196;24.336;2022-08-21T05:59:42;98494.56;;;21.61;100.00
26376;BME280;30544;42.196;24.336;2022-08-21T06:02:08;98498.22;;;21.61;100.00
26376;BME280;30544;42.196;24.336;2022-08-21T06:04:37;98503.44;;;21.51;100.00
26376;BME280;30544;42.196;24.336;2022-08-21T06:07:04;98478.47;;;21.70;100.00
26376;BME280;30544;42.196;24.336;2022-08-21T06:09:33;98490.16;;;21.81;100.00
26376;BME280;30544;42.196;24.336;2022-08-21T06:12:03;98485.34;;;21.81;100.00
26376;BME280;30544;42.196;24.336;2022-08-21T06:14:30;98484.16;;;21.91;100.00
26376;BME280;30544;42.196;24.336;2022-08-21T06:17:02;98473.84;;;21.57;99.57
26376;BME280;30544;42.196;24.336;2022-08-21T06:19:30;98487.41;;;21.72;99.21
26376;BME280;30544;42.196;24.336;2022-08-21T06:21:56;98493.25;;;22.05;99.28
26376;BME280;30544;42.196;24.336;2022-08-21T06:24:23;98489.66;;;22.17;100.00
26376;BME280;30544;42.196;24.336;2022-08-21T06:26:52;98488.44;;;22.06;99.81
26376;BME280;30544;42.196;24.336;2022-08-21T06:29:20;98487.59;;;21.97;99.01
26376;BME280;30544;42.196;24.336;2022-08-21T06:31:48;98487.53;;;22.14;98.55
26376;BME280;30544;42.196;24.336;2022-08-21T06:34:16;98482.06;;;22.17;97.68
26376;BME280;30544;42.196;24.336;2022-08-21T06:36:43;98488.16;;;21.90;98.43
26376;BME280;30544;42.196;24.336;2022-08-21T06:39:10;98488.03;;;21.78;97.40
26376;BME280;30544;42.196;24.336;2022-08-21T06:41:38;98493.56;;;22.33;96.23
26376;BME280;30544;42.196;24.336;2022-08-21T06:44:07;98496.69;;;22.40;97.76
26376;BME280;30544;42.196;24.336;2022-08-21T06:46:34;98496.53;;;22.37;97.57
26376;BME280;30544;42.196;24.336;2022-08-21T06:49:00;98494.91;;;22.57;97.18
26376;BME280;30544;42.196;24.336;2022-08-21T06:51:27;98487.66;;;22.47;94.59
26376;BME280;30544;42.196;24.336;2022-08-21T06:53:54;98493.84;;;22.61;93.98
26376;BME280;30544;42.196;24.336;2022-08-21T06:56:21;98492.38;;;22.85;96.35
26376;BME280;30544;42.196;24.336;2022-08-21T06:58:48;98495.22;;;22.85;97.63
26376;BME280;30544;42.196;24.336;2022-08-21T07:01:16;98489.25;;;22.77;98.27
26376;BME280;30544;42.196;24.336;2022-08-21T07:03:43;98489.06;;;23.03;97.58
26376;BME280;30544;42.196;24.336;2022-08-21T07:06:11;98497.69;;;22.86;95.09
26376;BME280;30544;42.196;24.336;2022-08-21T07:08:38;98492.69;;;22.62;94.62
26376;BME280;30544;42.196;24.336;2022-08-21T07:11:09;98488.81;;;22.67;95.09
26376;BME280;30544;42.196;24.336;2022-08-21T07:13:37;98487.13;;;22.74;92.71
26376;BME280;30544;42.196;24.336;2022-08-21T07:16:05;98485.88;;;22.84;92.60
26376;BME280;30544;42.196;24.336;2022-08-21T07:18:33;98495.50;;;22.62;91.25
26376;BME280;30544;42.196;24.336;2022-08-21T07:21:01;98499.94;;;22.72;89.88
26376;BME280;30544;42.196;24.336;2022-08-21T07:23:30;98494.66;;;22.91;92.64
26376;BME280;30544;42.196;24.336;2022-08-21T07:25:58;98496.81;;;22.65;94.34
26376;BME280;30544;42.196;24.336;2022-08-21T07:28:25;98494.75;;;22.74;93.14
26376;BME280;30544;42.196;24.336;2022-08-21T07:30:54;98491.09;;;22.73;92.86
26376;BME280;30544;42.196;24.336;2022-08-21T07:33:23;98493.94;;;22.94;94.34
26376;BME280;30544;42.196;24.336;2022-08-21T07:35:52;98496.97;;;22.68;96.01
26376;BME280;30544;42.196;24.336;2022-08-21T07:38:20;98496.16;;;22.68;96.31
26376;BME280;30544;42.196;24.336;2022-08-21T07:40:47;98492.75;;;22.74;96.48
26376;BME280;30544;42.196;24.336;2022-08-21T07:43:15;98497.63;;;22.65;95.89
26376;BME280;30544;42.196;24.336;2022-08-21T07:45:43;98498.81;;;22.43;97.65
26376;BME280;30544;42.196;24.336;2022-08-21T07:48:10;98489.13;;;22.53;95.99
26376;BME280;30544;42.196;24.336;2022-08-21T07:50:38;98491.94;;;22.53;96.12
26376;BME280;30544;42.196;24.336;2022-08-21T07:53:06;98496.88;;;22.35;98.07
26376;BME280;30544;42.196;24.336;2022-08-21T07:55:33;98490.56;;;22.59;96.98
26376;BME280;30544;42.196;24.336;2022-08-21T07:58:00;98493.50;;;22.42;96.67
26376;BME280;30544;42.196;24.336;2022-08-21T08:00:29;98481.53;;;22.45;98.34
26376;BME280;30544;42.196;24.336;2022-08-21T08:02:56;98471.19;;;22.70;97.91
26376;BME280;30544;42.196;24.336;2022-08-21T08:05:26;98467.81;;;22.76;96.82
26376;BME280;30544;42.196;24.336;2022-08-21T08:07:53;98473.31;;;22.73;95.06
26376;BME280;30544;42.196;24.336;2022-08-21T08:10:22;98484.28;;;22.54;95.01
26376;BME280;30544;42.196;24.336;2022-08-21T08:12:50;98470.91;;;22.63;96.16
26376;BME280;30544;42.196;24.336;2022-08-21T08:15:20;98475.59;;;22.79;97.21
26376;BME280;30544;42.196;24.336;2022-08-21T08:17:47;98475.75;;;22.83;95.96
26376;BME280;30544;42.196;24.336;2022-08-21T08:20:16;98462.56;;;22.66;95.12
26376;BME280;30544;42.196;24.336;2022-08-21T08:22:44;98467.91;;;22.68;96.14
26376;BME280;30544;42.196;24.336;2022-08-21T08:25:12;98456.88;;;22.54;95.95
26376;BME280;30544;42.196;24.336;2022-08-21T08:27:41;98455.75;;;22.67;95.90
26376;BME280;30544;42.196;24.336;2022-08-21T08:30:11;98461.34;;;22.55;97.04
26376;BME280;30544;42.196;24.336;2022-08-21T08:32:38;98460.03;;;22.73;96.93
26376;BME280;30544;42.196;24.336;2022-08-21T08:35:06;98458.88;;;22.54;95.01
26376;BME280;30544;42.196;24.336;2022-08-21T08:37:35;98455.25;;;22.65;96.59
26376;BME280;30544;42.196;24.336;2022-08-21T08:40:04;98452.03;;;22.75;96.80
26376;BME280;30544;42.196;24.336;2022-08-21T08:42:35;98447.69;;;22.57;95.44
26376;BME280;30544;42.196;24.336;2022-08-21T08:45:07;98444.72;;;22.74;97.24
26376;BME280;30544;42.196;24.336;2022-08-21T08:47:37;98449.91;;;22.72;96.69
26376;BME280;30544;42.196;24.336;2022-08-21T08:50:07;98442.81;;;22.87;93.14
26376;BME280;30544;42.196;24.336;2022-08-21T08:52:41;98449.81;;;22.81;92.78
26376;BME280;30544;42.196;24.336;2022-08-21T08:55:13;98441.34;;;22.60;93.13
26376;BME280;30544;42.196;24.336;2022-08-21T08:57:44;98429.19;;;22.80;92.09
26376;BME280;30544;42.196;24.336;2022-08-21T09:00:16;98444.25;;;22.31;93.81
26376;BME280;30544;42.196;24.336;2022-08-21T09:02:45;98440.19;;;22.19;94.02
26376;BME280;30544;42.196;24.336;2022-08-21T09:05:23;98431.50;;;22.45;95.08
26376;BME280;30544;42.196;24.336;2022-08-21T09:08:16;98427.56;;;22.59;95.21
26376;BME280;30544;42.196;24.336;2022-08-21T09:10:51;98418.63;;;22.57;93.78
26376;BME280;30544;42.196;24.336;2022-08-21T09:13:27;98422.16;;;22.54;93.52
26376;BME280;30544;42.196;24.336;2022-08-21T09:16:07;98404.78;;;22.43;93.32
26376;BME280;30544;42.196;24.336;2022-08-21T09:18:43;98404.56;;;22.27;93.79
26376;BME280;30544;42.196;24.336;2022-08-21T09:21:20;98423.03;;;22.45;92.97
26376;BME280;30544;42.196;24.336;2022-08-21T09:24:00;98414.28;;;22.59;93.27
26376;BME280;30544;42.196;24.336;2022-08-21T09:26:34;98398.97;;;22.60;93.07
26376;BME280;30544;42.196;24.336;2022-08-21T09:29:03;98401.44;;;22.62;94.54
26376;BME280;30544;42.196;24.336;2022-08-21T09:31:35;98396.41;;;22.34;95.35
26376;BME280;30544;42.196;24.336;2022-08-21T09:34:04;98408.97;;;22.16;94.97
26376;BME280;30544;42.196;24.336;2022-08-21T09:36:37;98403.00;;;22.17;97.31
26376;BME280;30544;42.196;24.336;2022-08-21T09:39:06;98402.41;;;22.66;95.33
26376;BME280;30544;42.196;24.336;2022-08-21T09:41:34;98408.16;;;22.57;94.22
26376;BME280;30544;42.196;24.336;2022-08-21T09:44:03;98391.94;;;22.66;95.24
26376;BME280;30544;42.196;24.336;2022-08-21T09:46:30;98404.75;;;22.64;94.14
26376;BME280;30544;42.196;24.336;2022-08-21T09:49:00;98404.78;;;22.43;95.78
26376;BME280;30544;42.196;24.336;2022-08-21T09:51:29;98409.44;;;22.60;94.38
26376;BME280;30544;42.196;24.336;2022-08-21T09:54:10;98408.31;;;22.94;93.52
26376;BME280;30544;42.196;24.336;2022-08-21T09:56:51;98396.69;;;23.07;92.85
26376;BME280;30544;42.196;24.336;2022-08-21T09:59:36;98405.28;;;22.78;91.30
26376;BME280;30544;42.196;24.336;2022-08-21T10:02:21;98405.97;;;22.75;90.46
26376;BME280;30544;42.196;24.336;2022-08-21T10:04:52;98406.88;;;23.33;90.27
26376;BME280;30544;42.196;24.336;2022-08-21T10:07:21;98415.59;;;23.28;90.01
26376;BME280;30544;42.196;24.336;2022-08-21T10:09:58;98399.75;;;23.15;87.55
26376;BME280;30544;42.196;24.336;2022-08-21T10:12:32;98406.72;;;23.17;89.66
26376;BME280;30544;42.196;24.336;2022-08-21T10:15:06;98404.75;;;23.30;85.08
26376;BME280;30544;42.196;24.336;2022-08-21T10:17:44;98406.47;;;23.80;84.21
26376;BME280;30544;42.196;24.336;2022-08-21T10:20:20;98404.44;;;24.05;84.14
26376;BME280;30544;42.196;24.336;2022-08-21T10:23:01;98402.66;;;24.12;83.50
26376;BME280;30544;42.196;24.336;2022-08-21T10:25:35;98400.44;;;23.93;82.43
26376;BME280;30544;42.196;24.336;2022-08-21T10:28:08;98391.69;;;23.98;82.19
26376;BME280;30544;42.196;24.336;2022-08-21T10:30:41;98396.97;;;24.24;81.53
26376;BME280;30544;42.196;24.336;2022-08-21T10:33:28;98393.47;;;24.03;82.82
26376;BME280;30544;42.196;24.336;2022-08-21T10:36:06;98403.63;;;24.56;80.92
26376;BME280;30544;42.196;24.336;2022-08-21T10:38:54;98403.09;;;24.67;80.68
26376;BME280;30544;42.196;24.336;2022-08-21T10:41:32;98404.66;;;24.64;76.54
26376;BME280;30544;42.196;24.336;2022-08-21T10:44:15;98400.63;;;24.65;79.97
26376;BME280;30544;42.196;24.336;2022-08-21T10:46:51;98392.13;;;24.65;77.10
26376;BME280;30544;42.196;24.336;2022-08-21T10:49:27;98400.97;;;24.76;76.78
26376;BME280;30544;42.196;24.336;2022-08-21T10:52:17;98391.75;;;25.07;76.58
26376;BME280;30544;42.196;24.336;2022-08-21T10:54:52;98396.69;;;25.10;75.15
26376;BME280;30544;42.196;24.336;2022-08-21T10:57:29;98407.22;;;25.25;75.56
26376;BME280;30544;42.196;24.336;2022-08-21T11:00:03;98396.72;;;25.57;71.41
26376;BME280;30544;42.196;24.336;2022-08-21T11:02:37;98402.56;;;25.48;75.64
26376;BME280;30544;42.196;24.336;2022-08-21T11:05:11;98392.69;;;25.42;74.03
26376;BME280;30544;42.196;24.336;2022-08-21T11:07:45;98403.00;;;25.19;75.15
26376;BME280;30544;42.196;24.336;2022-08-21T11:10:19;98402.56;;;25.33;76.11
26376;BME280;30544;42.196;24.336;2022-08-21T11:12:52;98395.69;;;25.34;76.75
26376;BME280;30544;42.196;24.336;2022-08-21T11:15:27;98403.13;;;25.38;76.16
26376;BME280;30544;42.196;24.336;2022-08-21T11:18:01;98400.09;;;25.31;76.52
26376;BME280;30544;42.196;24.336;2022-08-21T11:20:34;98400.81;;;25.28;78.83
26376;BME280;30544;42.196;24.336;2022-08-21T11:23:07;98392.94;;;25.06;79.36
26376;BME280;30544;42.196;24.336;2022-08-21T11:25:40;98388.47;;;24.65;84.02
26376;BME280;30544;42.196;24.336;2022-08-21T11:28:11;98395.78;;;24.38;86.42
26376;BME280;30544;42.196;24.336;2022-08-21T11:30:46;98394.78;;;24.58;85.43
26376;BME280;30544;42.196;24.336;2022-08-21T11:33:25;98395.22;;;24.60;88.36
26376;BME280;30544;42.196;24.336;2022-08-21T11:35:57;98391.00;;;24.54;90.49
26376;BME280;30544;42.196;24.336;2022-08-21T11:38:35;98400.38;;;24.42;86.96
26376;BME280;30544;42.196;24.336;2022-08-21T11:41:21;98386.81;;;24.36;85.96
26376;BME280;30544;42.196;24.336;2022-08-21T11:43:54;98385.88;;;24.32;87.22
26376;BME280;30544;42.196;24.336;2022-08-21T11:46:31;98386.34;;;24.21;88.51
26376;BME280;30544;42.196;24.336;2022-08-21T11:49:27;98377.78;;;24.06;87.99
26376;BME280;30544;42.196;24.336;2022-08-21T11:52:05;98367.63;;;24.05;89.28
26376;BME280;30544;42.196;24.336;2022-08-21T11:54:38;98360.25;;;23.76;91.16
26376;BME280;30544;42.196;24.336;2022-08-21T11:57:17;98366.72;;;23.64;89.79
26376;BME280;30544;42.196;24.336;2022-08-21T11:59:49;98358.34;;;23.80;89.43
26376;BME280;30544;42.196;24.336;2022-08-21T12:02:27;98352.47;;;23.73;88.96
26376;BME280;30544;42.196;24.336;2022-08-21T12:05:00;98362.25;;;23.87;87.63
26376;BME280;30544;42.196;24.336;2022-08-21T12:07:31;98366.09;;;23.95;88.35
26376;BME280;30544;42.196;24.336;2022-08-21T12:10:01;98348.88;;;24.00;87.93
26376;BME280;30544;42.196;24.336;2022-08-21T12:12:31;98348.50;;;24.01;88.08
26376;BME280;30544;42.196;24.336;2022-08-21T12:15:17;98354.03;;;24.10;89.31
26376;BME280;30544;42.196;24.336;2022-08-21T12:17:56;98347.16;;;24.23;89.39
26376;BME280;30544;42.196;24.336;2022-08-21T12:20:37;98349.75;;;24.16;88.22
26376;BME280;30544;42.196;24.336;2022-08-21T12:23:16;98357.56;;;24.19;87.78
26376;BME280;30544;42.196;24.336;2022-08-21T12:25:48;98359.25;;;24.48;87.87
26376;BME280;30544;42.196;24.336;2022-08-21T12:28:26;98350.91;;;24.40;86.34
26376;BME280;30544;42.196;24.336;2022-08-21T12:30:54;98363.59;;;24.58;82.44
26376;BME280;30544;42.196;24.336;2022-08-21T12:33:24;98357.31;;;24.65;85.01
26376;BME280;30544;42.196;24.336;2022-08-21T12:36:00;98360.97;;;24.65;84.79
26376;BME280;30544;42.196;24.336;2022-08-21T12:38:32;98360.75;;;24.86;82.31
26376;BME280;30544;42.196;24.336;2022-08-21T12:41:02;98362.16;;;24.64;83.76
26376;BME280;30544;42.196;24.336;2022-08-21T12:43:33;98363.88;;;24.53;81.25
26376;BME280;30544;42.196;24.336;2022-08-21T12:46:02;98361.53;;;24.71;85.23
26376;BME280;30544;42.196;24.336;2022-08-21T12:48:35;98365.66;;;24.73;83.14
26376;BME280;30544;42.196;24.336;2022-08-21T12:51:10;98358.63;;;24.83;83.64
26376;BME280;30544;42.196;24.336;2022-08-21T12:53:42;98364.94;;;24.48;80.59
26376;BME280;30544;42.196;24.336;2022-08-21T12:56:15;98355.09;;;24.58;82.16
26376;BME280;30544;42.196;24.336;2022-08-21T12:58:46;98348.66;;;24.73;80.54
26376;BME280;30544;42.196;24.336;2022-08-21T13:01:19;98347.59;;;24.66;81.10